Time;durP1;ratioP1;P1;durP2;ratioP2;P2;SDS_P1;SDS_P2;PMS_P1;PMS_P2;Temp;Humidity;BMP_temperature;BMP_pressure;BME280_temperature;BME280_humidity;BME280_pressure;Samples;Min_cycle;Max_cycle;Signal;HPM_P1;HPM_P2
2023/06/28 04:01:12;;;;;;;1.67;1.57;;;13.50;97.30;;;;;;5723578;23;21184;-91
2023/06/28 04:03:38;;;;;;;2.43;2.23;;;13.50;97.30;;;;;;5000529;28;20441;-90
2023/06/28 04:06:05;;;;;;;1.67;1.57;;;13.50;97.30;;;;;;5012730;28;20177;-91
2023/06/28 04:08:30;;;;;;;1.90;1.80;;;13.50;97.30;;;;;;5011910;28;20189;-91
2023/06/28 04:10:58;;;;;;;2.60;1.53;;;13.50;97.30;;;;;;5007103;28;20499;-91
2023/06/28 04:13:25;;;;;;;6.30;1.97;;;13.50;97.30;;;;;;4992785;28;20186;-90
2023/06/28 04:15:52;;;;;;;1.20;1.10;;;13.50;97.30;;;;;;5009730;23;20532;-91
2023/06/28 04:18:17;;;;;;;9.63;2.00;;;13.50;97.30;;;;;;5000018;28;20441;-91
2023/06/28 04:20:43;;;;;;;1.57;1.30;;;13.50;97.30;;;;;;5001285;28;20478;-91
2023/06/28 04:23:08;;;;;;;2.57;2.17;;;13.60;97.30;;;;;;5011440;28;20194;-92
2023/06/28 04:25:34;;;;;;;5.07;1.60;;;13.60;97.30;;;;;;4991401;28;20613;-91
2023/06/28 04:27:59;;;;;;;9.60;1.50;;;13.70;97.30;;;;;;4989844;28;20217;-90
2023/06/28 04:30:25;;;;;;;2.00;1.73;;;13.70;97.30;;;;;;4983661;28;20188;-91
2023/06/28 04:32:50;;;;;;;2.20;1.43;;;13.70;97.30;;;;;;4986177;28;20358;-92
2023/06/28 04:35:17;;;;;;;3.03;2.03;;;13.80;97.30;;;;;;5007150;28;20257;-91
2023/06/28 04:37:43;;;;;;;2.27;2.13;;;13.80;97.30;;;;;;5005281;28;20182;-93
2023/06/28 04:40:10;;;;;;;1.13;1.03;;;13.90;97.30;;;;;;5003936;28;20441;-92
2023/06/28 04:42:35;;;;;;;2.80;1.90;;;13.90;97.30;;;;;;5003307;28;20520;-92
2023/06/28 04:45:01;;;;;;;1.93;1.50;;;13.90;97.30;;;;;;5006942;28;20453;-92
2023/06/28 04:47:27;;;;;;;1.83;1.30;;;14.00;97.30;;;;;;5013408;28;20224;-92
2023/06/28 04:49:54;;;;;;;3.43;1.50;;;14.00;97.30;;;;;;5010308;28;20212;-91
2023/06/28 04:52:22;;;;;;;8.33;1.63;;;14.10;97.30;;;;;;5002952;28;20445;-91
2023/06/28 04:54:48;;;;;;;2.07;1.93;;;14.10;97.30;;;;;;5011145;28;20457;-93
2023/06/28 04:57:15;;;;;;;1.80;1.73;;;14.10;97.30;;;;;;5002701;28;20421;-92
2023/06/28 04:59:41;;;;;;;4.73;2.77;;;14.20;97.30;;;;;;5003094;28;20437;-92
2023/06/28 05:02:07;;;;;;;1.40;1.30;;;14.20;97.30;;;;;;5007683;28;20421;-92
2023/06/28 05:04:33;;;;;;;22.73;2.37;;;14.30;97.30;;;;;;4999180;28;20449;-91
2023/06/28 05:07:03;;;;;;;3.00;2.30;;;14.40;97.30;;;;;;5003159;28;20456;-92
2023/06/28 05:09:29;;;;;;;1.87;1.77;;;14.40;97.30;;;;;;5007763;28;20222;-93
2023/06/28 05:11:55;;;;;;;1.23;1.13;;;14.50;97.30;;;;;;5003302;28;20638;-91
2023/06/28 05:14:21;;;;;;;1.90;1.80;;;14.50;97.30;;;;;;5004370;28;20207;-92
2023/06/28 05:16:47;;;;;;;3.50;1.87;;;14.60;97.30;;;;;;5007169;28;20864;-92
2023/06/28 05:19:12;;;;;;;1.60;1.50;;;14.60;97.30;;;;;;4993098;28;20291;-91
2023/06/28 05:21:38;;;;;;;2.37;2.10;;;14.70;97.30;;;;;;4988920;28;20189;-91
2023/06/28 05:24:03;;;;;;;6.67;2.40;;;14.70;97.30;;;;;;4983727;28;20208;-91
2023/06/28 05:26:31;;;;;;;2.07;1.47;;;14.80;97.30;;;;;;4991053;28;20190;-92
2023/06/28 05:28:57;;;;;;;3.10;2.90;;;14.90;97.30;;;;;;4982259;28;20219;-91
2023/06/28 05:31:22;;;;;;;1.30;1.20;;;14.90;97.30;;;;;;4991397;28;20429;-91
2023/06/28 05:33:48;;;;;;;2.53;2.33;;;15.00;97.30;;;;;;4990343;28;20248;-92
2023/06/28 05:36:14;;;;;;;1.20;1.10;;;15.10;97.30;;;;;;4977460;28;20198;-91
2023/06/28 05:38:42;;;;;;;1.57;1.57;;;15.10;97.30;;;;;;4982742;28;20186;-92
2023/06/28 05:41:12;;;;;;;1.83;1.73;;;15.20;97.30;;;;;;4983677;28;20421;-92
2023/06/28 05:43:45;;;;;;;8.63;1.70;;;15.20;97.30;;;;;;4983487;28;20463;-91
2023/06/28 05:46:12;;;;;;;1.90;1.90;;;15.30;97.30;;;;;;4984402;28;20537;-91
2023/06/28 05:48:38;;;;;;;1.93;1.60;;;15.30;97.30;;;;;;4983160;28;20489;-92
2023/06/28 05:51:10;;;;;;;10.20;2.33;;;15.40;97.30;;;;;;4983701;28;20445;-92
2023/06/28 05:53:44;;;;;;;1.60;1.50;;;15.50;97.30;;;;;;4991993;28;20943;-91
2023/06/28 05:56:11;;;;;;;7.93;3.03;;;15.50;97.30;;;;;;4980226;28;20989;-91
2023/06/28 05:58:37;;;;;;;2.80;2.53;;;15.60;97.30;;;;;;4980791;28;20494;-92
2023/06/28 06:01:02;;;;;;;1.90;1.80;;;15.60;97.30;;;;;;4983238;28;20445;-90
2023/06/28 06:03:30;;;;;;;1.60;1.50;;;15.70;97.30;;;;;;4991598;28;20201;-92
2023/06/28 06:06:03;;;;;;;2.50;1.87;;;15.80;97.30;;;;;;4983424;28;20211;-91
2023/06/28 06:08:31;;;;;;;1.67;1.30;;;15.80;97.30;;;;;;4983026;28;20477;-91
2023/06/28 06:11:04;;;;;;;2.30;2.20;;;15.90;97.30;;;;;;4983467;28;20432;-91
2023/06/28 06:13:30;;;;;;;2.17;1.80;;;15.90;97.30;;;;;;4990946;28;20436;-91
2023/06/28 06:15:55;;;;;;;2.10;2.00;;;16.00;97.30;;;;;;4980916;28;20468;-91
2023/06/28 06:18:21;;;;;;;2.23;1.50;;;16.00;97.30;;;;;;4984395;28;20436;-92
2023/06/28 06:20:46;;;;;;;1.97;1.87;;;16.00;97.30;;;;;;4990673;28;20677;-91
2023/06/28 06:23:12;;;;;;;1.77;1.30;;;16.00;97.30;;;;;;4984420;28;20371;-92
2023/06/28 06:25:45;;;;;;;2.03;1.70;;;16.10;97.30;;;;;;4983308;28;20210;-91
2023/06/28 06:28:11;;;;;;;1.57;1.50;;;16.10;97.30;;;;;;4979419;28;20201;-92
2023/06/28 06:30:36;;;;;;;1.63;1.53;;;16.10;97.30;;;;;;4980581;28;20432;-92
2023/06/28 06:33:02;;;;;;;1.20;1.10;;;16.20;97.30;;;;;;4982522;28;20640;-92
2023/06/28 06:35:32;;;;;;;1.77;1.67;;;16.30;97.30;;;;;;4990817;28;20589;-91
2023/06/28 06:37:58;;;;;;;11.27;2.20;;;16.40;97.30;;;;;;4990632;28;20208;-91
2023/06/28 06:40:23;;;;;;;1.10;1.00;;;16.40;97.30;;;;;;4986199;28;20820;-91
2023/06/28 06:42:49;;;;;;;3.20;1.60;;;16.50;97.30;;;;;;4988323;28;20177;-92
2023/06/28 06:45:17;;;;;;;1.83;1.30;;;16.60;97.30;;;;;;4983742;28;20214;-92
2023/06/28 06:47:44;;;;;;;1.50;1.50;;;16.70;97.30;;;;;;4991150;28;20182;-92
2023/06/28 06:50:09;;;;;;;3.67;2.40;;;16.80;97.30;;;;;;4986205;28;20422;-93
2023/06/28 06:52:36;;;;;;;8.53;1.57;;;16.80;97.30;;;;;;4989695;28;20476;-92
2023/06/28 06:55:02;;;;;;;4.63;1.40;;;16.90;97.30;;;;;;4993046;28;20217;-92
2023/06/28 06:57:28;;;;;;;1.33;1.33;;;16.90;97.30;;;;;;4989342;28;20425;-92
2023/06/28 06:59:53;;;;;;;3.17;2.50;;;16.90;97.30;;;;;;4987559;28;20583;-92
2023/06/28 07:02:21;;;;;;;1.43;1.33;;;17.00;97.30;;;;;;4996471;28;20193;-92
2023/06/28 07:04:46;;;;;;;2.07;1.33;;;17.00;97.30;;;;;;4987171;28;20216;-92
2023/06/28 07:07:12;;;;;;;2.83;2.63;;;17.00;97.30;;;;;;4995497;28;20432;-92
2023/06/28 07:09:37;;;;;;;2.63;2.43;;;17.00;97.30;;;;;;4995157;28;20790;-92
2023/06/28 07:12:03;;;;;;;2.67;2.30;;;17.00;97.30;;;;;;4984594;28;20212;-92
2023/06/28 07:14:29;;;;;;;6.80;2.47;;;17.10;97.30;;;;;;4983542;28;20623;-93
2023/06/28 07:16:54;;;;;;;10.83;1.80;;;17.10;97.30;;;;;;4992863;28;20182;-94
2023/06/28 07:19:20;;;;;;;2.20;1.67;;;17.10;97.30;;;;;;4987341;28;20181;-93
2023/06/28 07:21:45;;;;;;;1.67;1.57;;;17.20;97.30;;;;;;4994936;28;20209;-92
2023/06/28 07:24:11;;;;;;;2.07;1.93;;;17.20;97.30;;;;;;4984981;28;20244;-92
2023/06/28 07:26:36;;;;;;;1.63;1.37;;;17.20;97.30;;;;;;4984168;28;20199;-94
2023/06/28 07:29:02;;;;;;;8.90;2.00;;;17.20;97.30;;;;;;4994575;28;20271;-92
2023/06/28 07:31:28;;;;;;;3.73;2.63;;;17.20;97.30;;;;;;4996909;28;20213;-92
2023/06/28 07:33:53;;;;;;;1.20;1.10;;;17.20;97.30;;;;;;4995899;28;20950;-94
2023/06/28 07:36:19;;;;;;;1.43;1.40;;;17.20;97.30;;;;;;4988520;28;20194;-92
2023/06/28 07:38:44;;;;;;;1.63;1.53;;;17.30;97.30;;;;;;4989557;28;20282;-93
2023/06/28 07:41:12;;;;;;;1.93;1.83;;;17.40;97.30;;;;;;4997606;28;20193;-92
2023/06/28 07:43:38;;;;;;;2.30;2.10;;;17.60;97.30;;;;;;4988849;28;20182;-92
2023/06/28 07:46:03;;;;;;;6.30;2.80;;;17.70;97.30;;;;;;4987910;28;20452;-93
2023/06/28 07:48:31;;;;;;;1.47;1.40;;;17.80;97.30;;;;;;4992554;28;20208;-92
2023/06/28 07:50:57;;;;;;;1.60;1.60;;;17.80;97.30;;;;;;4988827;28;20182;-93
2023/06/28 07:53:23;;;;;;;1.67;1.60;;;17.90;97.30;;;;;;4990753;28;20445;-93
2023/06/28 07:55:51;;;;;;;1.37;1.27;;;18.00;96.20;;;;;;4997389;28;20445;-92
2023/06/28 07:58:16;;;;;;;1.83;1.73;;;18.10;96.00;;;;;;4989376;28;20191;-93
2023/06/28 08:00:42;;;;;;;1.80;1.70;;;18.20;95.60;;;;;;4989847;28;20429;-92
2023/06/28 08:03:16;;;;;;;1.67;1.57;;;18.20;95.40;;;;;;4987983;28;20185;-92
2023/06/28 08:05:43;;;;;;;2.23;2.03;;;18.30;95.60;;;;;;4991952;28;20213;-93
2023/06/28 08:08:09;;;;;;;1.57;1.50;;;18.30;95.60;;;;;;4987396;28;20481;-92
2023/06/28 08:10:35;;;;;;;1.50;1.40;;;18.30;96.10;;;;;;4994362;28;20432;-93
2023/06/28 08:13:02;;;;;;;2.70;1.83;;;18.20;95.80;;;;;;4989873;28;20189;-93
2023/06/28 08:15:28;;;;;;;7.97;2.40;;;18.10;95.10;;;;;;4994839;28;20230;-93
2023/06/28 08:17:53;;;;;;;4.30;2.30;;;18.20;95.20;;;;;;4986710;28;20453;-93
2023/06/28 08:20:19;;;;;;;1.67;1.57;;;18.20;95.30;;;;;;5000551;28;20240;-92
2023/06/28 08:22:44;;;;;;;2.50;1.77;;;18.30;94.40;;;;;;4998567;28;20178;-95
2023/06/28 08:25:10;;;;;;;1.37;1.27;;;18.50;93.80;;;;;;4999829;28;20233;-93
2023/06/28 08:27:36;;;;;;;1.60;1.50;;;18.60;94.60;;;;;;5000618;28;20192;-94
2023/06/28 08:30:02;;;;;;;1.63;1.17;;;18.60;93.90;;;;;;4999269;28;20293;-94
2023/06/28 08:32:28;;;;;;;1.37;1.27;;;18.50;93.10;;;;;;4999577;28;20463;-94
2023/06/28 08:34:53;;;;;;;2.47;2.27;;;18.50;92.70;;;;;;5002675;28;20456;-94
2023/06/28 08:37:19;;;;;;;1.80;1.53;;;18.50;93.20;;;;;;4997311;28;20259;-94
2023/06/28 08:39:44;;;;;;;7.37;1.10;;;18.60;91.90;;;;;;4992201;28;20222;-94
2023/06/28 08:42:11;;;;;;;1.80;1.30;;;18.70;90.70;;;;;;5004653;28;20189;-92
2023/06/28 08:44:46;;;;;;;1.30;1.20;;;18.80;90.70;;;;;;5001118;28;20294;-94
2023/06/28 08:47:12;;;;;;;3.00;2.23;;;18.80;92.00;;;;;;5004344;28;20417;-94
2023/06/28 08:49:38;;;;;;;2.70;1.43;;;18.80;92.30;;;;;;5004330;28;20484;-94
2023/06/28 08:52:06;;;;;;;1.87;1.57;;;18.70;92.40;;;;;;5008458;28;20490;-93
2023/06/28 08:54:33;;;;;;;5.50;1.73;;;18.60;92.30;;;;;;5000820;28;20272;-95
2023/06/28 08:57:01;;;;;;;3.00;1.40;;;18.60;92.40;;;;;;5010936;28;20437;-93
2023/06/28 08:59:33;;;;;;;1.20;1.10;;;18.70;92.40;;;;;;4999299;28;21054;-91
2023/06/28 09:02:03;;;;;;;0.97;0.90;;;18.80;90.80;;;;;;4996152;28;20429;-95
2023/06/28 09:04:32;;;;;;;1.27;1.10;;;18.90;89.70;;;;;;4999960;28;20445;-94
2023/06/28 09:07:05;;;;;;;5.93;1.73;;;18.90;89.30;;;;;;5005682;28;20433;-93
2023/06/28 09:09:32;;;;;;;1.37;1.27;;;18.90;90.40;;;;;;5010532;28;20551;-95
2023/06/28 09:12:06;;;;;;;1.33;1.23;;;18.90;90.10;;;;;;5004849;28;20429;-93
2023/06/28 09:14:31;;;;;;;19.97;1.73;;;18.90;89.90;;;;;;5001066;28;20921;-94
2023/06/28 09:16:59;;;;;;;2.63;1.40;;;18.90;90.20;;;;;;5003560;28;20425;-93
2023/06/28 09:19:25;;;;;;;3.37;1.40;;;19.10;89.60;;;;;;5010185;28;20190;-94
2023/06/28 09:21:52;;;;;;;1.10;1.00;;;19.10;89.30;;;;;;5011683;28;20452;-94
2023/06/28 09:24:24;;;;;;;12.70;1.20;;;19.20;89.10;;;;;;5006882;28;20186;-91
2023/06/28 09:26:52;;;;;;;1.20;1.10;;;19.30;88.60;;;;;;5009224;28;20504;-95
2023/06/28 09:29:20;;;;;;;1.20;1.10;;;19.20;88.30;;;;;;5003617;28;20486;-94
2023/06/28 09:31:46;;;;;;;1.10;1.00;;;19.20;88.30;;;;;;5001273;28;20476;-94
2023/06/28 09:34:12;;;;;;;1.73;1.63;;;19.20;88.60;;;;;;4996804;28;20422;-94
2023/06/28 09:36:42;;;;;;;4.57;2.50;;;19.30;88.60;;;;;;4998021;28;20492;-92
2023/06/28 09:39:08;;;;;;;2.20;1.10;;;19.40;88.50;;;;;;5011289;28;20194;-93
2023/06/28 09:41:38;;;;;;;1.30;1.20;;;19.50;87.20;;;;;;5013850;28;20417;-93
2023/06/28 09:44:05;;;;;;;1.47;1.23;;;19.70;86.90;;;;;;5000679;28;20190;-92
2023/06/28 09:46:33;;;;;;;1.10;1.03;;;19.80;86.40;;;;;;5004568;28;20425;-93
2023/06/28 09:48:59;;;;;;;4.20;1.23;;;19.80;86.10;;;;;;5003681;28;20564;-94
2023/06/28 09:51:25;;;;;;;1.27;1.17;;;19.80;86.70;;;;;;5015234;28;20421;-93
2023/06/28 09:53:53;;;;;;;1.17;1.10;;;19.80;86.80;;;;;;5013746;28;20192;-95
2023/06/28 09:56:31;;;;;;;1.33;1.27;;;19.90;87.00;;;;;;5006790;28;20475;-91
2023/06/28 09:59:11;;;;;;;3.47;2.10;;;20.00;87.00;;;;;;5012559;28;20431;-95
2023/06/28 10:01:42;;;;;;;1.30;1.20;;;20.10;86.10;;;;;;5006981;28;20421;-92
2023/06/28 10:04:12;;;;;;;1.00;0.90;;;20.20;84.80;;;;;;5001053;28;20417;-93
2023/06/28 10:06:42;;;;;;;1.30;1.20;;;20.40;84.80;;;;;;5006223;28;20433;-95
2023/06/28 10:09:08;;;;;;;9.10;1.60;;;20.40;84.40;;;;;;5012010;28;20465;-94
2023/06/28 10:11:42;;;;;;;1.20;1.10;;;20.40;85.00;;;;;;5013329;28;20425;-94
2023/06/28 10:14:08;;;;;;;1.37;1.20;;;20.40;85.50;;;;;;5011759;28;20425;-93
2023/06/28 10:16:35;;;;;;;5.93;1.60;;;20.50;84.30;;;;;;5020649;23;21029;-76
2023/06/28 10:19:00;;;;;;;3.70;1.70;;;20.60;83.10;;;;;;5008185;28;20492;-80
2023/06/28 10:21:27;;;;;;;1.33;1.33;;;20.60;82.50;;;;;;5003711;28;21083;-71
2023/06/28 10:23:55;;;;;;;1.93;1.53;;;20.70;83.20;;;;;;4988583;28;20248;-75
2023/06/28 10:26:21;;;;;;;1.27;1.17;;;20.80;83.10;;;;;;4991285;28;20426;-80
2023/06/28 10:28:48;;;;;;;1.57;1.30;;;20.80;83.00;;;;;;4992807;28;20555;-80
2023/06/28 10:31:15;;;;;;;1.20;1.10;;;20.80;82.90;;;;;;4992329;28;20449;-83
2023/06/28 10:33:41;;;;;;;1.17;1.13;;;20.90;82.90;;;;;;4992511;28;20494;-77
2023/06/28 10:36:07;;;;;;;1.00;0.90;;;20.90;82.50;;;;;;4992285;28;20515;-80
2023/06/28 10:38:37;;;;;;;2.70;1.57;;;21.00;82.70;;;;;;4992882;28;20192;-84
2023/06/28 10:41:03;;;;;;;1.27;1.20;;;21.10;82.20;;;;;;4992747;28;20464;-82
2023/06/28 10:43:30;;;;;;;3.60;1.27;;;21.10;82.50;;;;;;4992183;28;20640;-66
2023/06/28 10:45:56;;;;;;;1.20;1.10;;;21.20;82.40;;;;;;4993208;28;20515;-78
2023/06/28 10:48:23;;;;;;;1.00;0.90;;;21.20;82.50;;;;;;4993362;28;20551;-81
2023/06/28 10:50:50;;;;;;;2.37;1.60;;;21.30;83.30;;;;;;4993623;28;20206;-81
2023/06/28 10:53:24;;;;;;;1.53;1.43;;;21.30;82.40;;;;;;4975433;28;20421;-72
2023/06/28 10:56:06;;;;;;;8.60;2.70;;;21.10;81.10;;;;;;4992256;28;20611;-80
2023/06/28 10:58:39;;;;;;;1.10;1.00;;;21.00;80.60;;;;;;4998728;28;20441;-80
2023/06/28 11:01:13;;;;;;;2.13;1.33;;;21.10;82.10;;;;;;4989755;28;20448;-66
2023/06/28 11:03:43;;;;;;;1.27;0.90;;;21.20;81.00;;;;;;4986435;28;20429;-68
2023/06/28 11:06:13;;;;;;;1.50;1.40;;;21.40;80.70;;;;;;5006466;28;20431;-81
2023/06/28 11:08:44;;;;;;;26.53;1.47;;;21.50;80.50;;;;;;4993662;28;20972;-80
2023/06/28 11:11:21;;;;;;;1.53;1.00;;;21.60;83.00;;;;;;4991629;28;20453;-74
2023/06/28 11:13:49;;;;;;;1.30;1.20;;;21.70;80.00;;;;;;4972316;28;20436;-69
2023/06/28 11:16:23;;;;;;;2.23;1.37;;;21.70;79.20;;;;;;4999260;28;20523;-82
2023/06/28 11:18:51;;;;;;;1.33;1.23;;;21.70;79.30;;;;;;4991913;28;20439;-81
2023/06/28 11:21:26;;;;;;;1.20;1.10;;;21.80;79.80;;;;;;4993131;28;20510;-69
2023/06/28 11:23:54;;;;;;;1.90;1.37;;;22.00;80.20;;;;;;4991135;28;20433;-76
2023/06/28 11:26:33;;;;;;;1.47;1.17;;;22.10;80.10;;;;;;4990607;28;20531;-77
2023/06/28 11:28:59;;;;;;;4.40;1.60;;;22.20;79.50;;;;;;4992549;28;20986;-76
2023/06/28 11:31:40;;;;;;;1.00;0.90;;;22.10;77.70;;;;;;4991294;28;20471;-84
2023/06/28 11:34:09;;;;;;;1.20;1.10;;;22.10;77.90;;;;;;4991721;28;20178;-80
2023/06/28 11:36:35;;;;;;;1.10;1.00;;;21.90;77.50;;;;;;4989625;28;20433;-70
2023/06/28 11:39:01;;;;;;;1.27;1.17;;;21.80;77.50;;;;;;4990744;28;20425;-84
2023/06/28 11:41:34;;;;;;;6.97;2.10;;;21.70;78.30;;;;;;4991457;28;20507;-82
2023/06/28 11:44:05;;;;;;;1.57;1.53;;;21.80;79.30;;;;;;4991617;28;20451;-83
2023/06/28 11:46:33;;;;;;;1.20;1.10;;;22.00;78.10;;;;;;4992929;28;20469;-83
2023/06/28 11:49:02;;;;;;;1.27;1.20;;;22.10;79.20;;;;;;4991875;28;20465;-83
2023/06/28 11:51:29;;;;;;;1.43;1.00;;;22.20;79.00;;;;;;4992094;28;20453;-85
2023/06/28 11:53:56;;;;;;;1.20;1.03;;;22.30;80.10;;;;;;4991540;28;20431;-82
2023/06/28 11:56:42;;;;;;;1.50;1.40;;;22.40;78.70;;;;;;4990832;28;20580;-75
2023/06/28 11:59:12;;;;;;;1.30;1.20;;;22.50;79.50;;;;;;4990995;28;20954;-81
2023/06/28 12:01:37;;;;;;;1.63;1.10;;;22.40;78.70;;;;;;4990621;28;20449;-77
2023/06/28 12:04:13;;;;;;;2.13;1.97;;;22.30;78.70;;;;;;4992680;28;20951;-84
2023/06/28 12:06:41;;;;;;;0.90;0.87;;;22.20;79.50;;;;;;4992426;28;20178;-84
2023/06/28 12:09:20;;;;;;;0.80;0.77;;;22.30;78.50;;;;;;4992661;28;20551;-87
2023/06/28 12:11:53;;;;;;;1.30;1.20;;;22.30;77.60;;;;;;4998543;28;20447;-88
2023/06/28 12:14:20;;;;;;;1.40;1.30;;;22.30;77.60;;;;;;5001684;28;20495;-86
2023/06/28 12:16:47;;;;;;;1.43;1.20;;;22.20;78.10;;;;;;4990438;28;20485;-80
2023/06/28 12:19:16;;;;;;;2.23;1.50;;;22.20;78.20;;;;;;4990714;28;20899;-70
2023/06/28 12:21:43;;;;;;;1.43;1.13;;;22.20;77.60;;;;;;4991118;28;20453;-70
2023/06/28 12:24:13;;;;;;;1.10;1.00;;;22.00;78.50;;;;;;4991039;28;21214;-75
2023/06/28 12:26:42;;;;;;;1.40;1.30;;;22.00;78.50;;;;;;4991785;28;20417;-85
2023/06/28 12:29:08;;;;;;;1.90;1.00;;;22.00;79.30;;;;;;4991358;28;20456;-81
2023/06/28 12:31:42;;;;;;;1.27;0.80;;;22.00;78.40;;;;;;4991571;28;20444;-84
2023/06/28 12:34:07;;;;;;;2.90;2.00;;;22.10;77.70;;;;;;4990389;28;20269;-85
2023/06/28 12:36:39;;;;;;;1.43;1.33;;;22.20;76.90;;;;;;4988446;28;20425;-76
2023/06/28 12:39:05;;;;;;;1.20;1.10;;;22.20;77.80;;;;;;4990655;28;20217;-79
2023/06/28 12:41:31;;;;;;;1.00;0.90;;;22.30;77.90;;;;;;4989996;28;20552;-81
2023/06/28 12:43:57;;;;;;;1.00;0.90;;;22.30;78.00;;;;;;4990460;28;20516;-81
2023/06/28 12:46:23;;;;;;;1.23;1.10;;;22.30;78.40;;;;;;4993427;28;20530;-82
2023/06/28 12:48:55;;;;;;;1.23;1.13;;;22.40;77.30;;;;;;5002278;28;20567;-79
2023/06/28 12:51:23;;;;;;;1.53;1.20;;;22.60;77.40;;;;;;4989890;28;20449;-83
2023/06/28 12:53:55;;;;;;;1.20;1.10;;;22.80;76.50;;;;;;4991596;28;20435;-79
2023/06/28 12:56:22;;;;;;;1.57;1.07;;;23.00;76.20;;;;;;4990077;28;20928;-76
2023/06/28 12:58:48;;;;;;;1.10;1.00;;;23.20;74.70;;;;;;4989730;28;20283;-83
2023/06/28 13:01:13;;;;;;;1.47;1.37;;;23.20;74.60;;;;;;4989703;28;20927;-83
2023/06/28 13:03:39;;;;;;;0.90;0.80;;;23.30;75.60;;;;;;4991635;28;20589;-83
2023/06/28 13:06:06;;;;;;;1.10;1.00;;;23.50;76.70;;;;;;4989958;28;20687;-80
2023/06/28 13:08:32;;;;;;;1.00;0.90;;;23.60;75.30;;;;;;4991704;28;20547;-84
2023/06/28 13:10:57;;;;;;;1.17;1.10;;;23.80;75.40;;;;;;4998619;28;20473;-83
2023/06/28 13:13:23;;;;;;;1.10;1.00;;;23.90;77.00;;;;;;4999237;28;20621;-84
2023/06/28 13:15:48;;;;;;;1.13;1.07;;;24.00;74.90;;;;;;4989993;28;20261;-82
2023/06/28 13:18:14;;;;;;;2.13;1.47;;;24.00;74.70;;;;;;4991672;28;20599;-89
2023/06/28 13:20:39;;;;;;;1.00;0.90;;;24.00;75.70;;;;;;4990731;28;20202;-87
2023/06/28 13:23:05;;;;;;;10.23;1.53;;;24.10;74.60;;;;;;4990160;28;20209;-87
2023/06/28 13:25:30;;;;;;;1.40;1.40;;;24.20;74.30;;;;;;4990983;28;20673;-91
2023/06/28 13:27:56;;;;;;;1.10;1.00;;;24.30;74.60;;;;;;4989860;28;20671;-91
2023/06/28 13:30:21;;;;;;;1.97;1.40;;;24.40;73.60;;;;;;4991690;28;21538;-84
2023/06/28 13:32:47;;;;;;;2.10;1.37;;;24.60;74.50;;;;;;4990144;28;20200;-86
2023/06/28 13:35:13;;;;;;;1.77;1.57;;;24.80;73.20;;;;;;4988880;28;20178;-72
2023/06/28 13:37:38;;;;;;;1.70;1.63;;;24.80;72.40;;;;;;4998190;28;20614;-89
2023/06/28 13:40:05;;;;;;;0.97;0.90;;;24.80;72.50;;;;;;4991359;28;20186;-93
2023/06/28 13:42:30;;;;;;;1.20;1.10;;;24.90;74.00;;;;;;4989567;28;20251;-85
2023/06/28 13:44:56;;;;;;;5.17;1.10;;;24.90;72.50;;;;;;4991712;28;20519;-87
2023/06/28 13:47:22;;;;;;;1.57;1.20;;;24.70;74.40;;;;;;4990225;28;20182;-89
2023/06/28 13:49:48;;;;;;;1.30;1.20;;;24.70;73.90;;;;;;4989820;28;20220;-84
2023/06/28 13:52:14;;;;;;;1.73;1.40;;;24.80;71.50;;;;;;4989971;28;20201;-84
2023/06/28 13:54:39;;;;;;;2.60;1.60;;;24.80;71.00;;;;;;4991157;28;20423;-89
2023/06/28 13:57:05;;;;;;;1.07;1.00;;;24.90;71.10;;;;;;4989020;28;20217;-87
2023/06/28 13:59:31;;;;;;;1.50;1.10;;;24.80;71.70;;;;;;4989753;28;20205;-89
2023/06/28 14:01:57;;;;;;;5.80;1.13;;;24.90;71.90;;;;;;4991031;28;20441;-85
2023/06/28 14:04:23;;;;;;;3.90;1.30;;;24.90;71.70;;;;;;4991575;28;20240;-92
2023/06/28 14:06:48;;;;;;;1.30;1.00;;;24.80;71.90;;;;;;4988506;28;20425;-77
2023/06/28 14:09:14;;;;;;;0.90;0.80;;;24.90;70.40;;;;;;4990361;28;20284;-82
2023/06/28 14:11:40;;;;;;;1.00;0.90;;;24.90;70.90;;;;;;4987389;28;20232;-72
2023/06/28 14:14:05;;;;;;;1.67;1.27;;;24.90;70.90;;;;;;4991203;28;20217;-85
2023/06/28 14:16:31;;;;;;;1.13;1.07;;;25.00;70.50;;;;;;4991483;28;20237;-83
2023/06/28 14:18:56;;;;;;;1.60;1.43;;;25.00;71.30;;;;;;4990849;28;20182;-84
2023/06/28 14:21:21;;;;;;;1.00;0.90;;;25.00;71.40;;;;;;4997071;28;20263;-88
2023/06/28 14:23:47;;;;;;;1.83;1.40;;;25.00;71.90;;;;;;4998621;28;20185;-82
2023/06/28 14:26:13;;;;;;;1.10;1.00;;;24.90;71.10;;;;;;4990719;28;20194;-84
2023/06/28 14:28:38;;;;;;;5.00;1.20;;;25.10;73.70;;;;;;4998196;28;20220;-93
2023/06/28 14:31:04;;;;;;;1.90;1.20;;;25.30;72.10;;;;;;4991905;28;20260;-89
2023/06/28 14:33:29;;;;;;;1.33;1.10;;;25.40;72.30;;;;;;4990359;28;20189;-88
2023/06/28 14:35:55;;;;;;;1.57;0.97;;;25.60;72.00;;;;;;4995217;28;20181;-78
2023/06/28 14:38:20;;;;;;;1.00;0.80;;;25.70;70.00;;;;;;4998817;28;20658;-85
2023/06/28 14:40:46;;;;;;;13.03;1.20;;;25.70;69.80;;;;;;4988277;28;20233;-84
2023/06/28 14:43:11;;;;;;;4.53;1.00;;;25.80;70.40;;;;;;4969932;28;20198;-87
2023/06/28 14:45:37;;;;;;;2.07;1.10;;;26.00;70.20;;;;;;4988480;28;20186;-83
2023/06/28 14:48:02;;;;;;;1.30;1.23;;;25.90;69.00;;;;;;4988546;28;20453;-89
2023/06/28 14:50:28;;;;;;;1.00;0.90;;;25.80;70.50;;;;;;4998503;28;20224;-89
2023/06/28 14:52:53;;;;;;;1.10;1.00;;;25.90;70.10;;;;;;4970247;28;20202;-91
2023/06/28 14:55:19;;;;;;;1.20;1.10;;;25.90;70.00;;;;;;4988739;28;20278;-93
2023/06/28 14:57:44;;;;;;;0.90;0.80;;;26.00;71.00;;;;;;4989372;28;20190;-82
2023/06/28 15:00:12;;;;;;;1.33;1.10;;;26.10;69.20;;;;;;4998833;28;20208;-89
2023/06/28 15:02:37;;;;;;;1.40;1.37;;;26.10;69.50;;;;;;4973365;28;20300;-91
2023/06/28 15:05:03;;;;;;;1.23;0.93;;;26.10;70.20;;;;;;4990453;28;20527;-85
2023/06/28 15:07:28;;;;;;;1.00;0.90;;;26.30;69.10;;;;;;4988675;28;20190;-85
2023/06/28 15:09:57;;;;;;;1.40;1.10;;;26.30;68.80;;;;;;4988912;28;20214;-77
2023/06/28 15:12:22;;;;;;;1.10;1.00;;;26.30;69.30;;;;;;4988685;28;20197;-81
2023/06/28 15:14:48;;;;;;;1.67;1.10;;;26.10;68.60;;;;;;4993113;28;20439;-89
2023/06/28 15:17:13;;;;;;;1.10;1.00;;;26.10;69.30;;;;;;4991910;28;20244;-81
2023/06/28 15:19:39;;;;;;;1.10;1.00;;;26.10;69.20;;;;;;4991162;28;20186;-73
2023/06/28 15:22:05;;;;;;;8.93;1.53;;;26.10;69.00;;;;;;4992194;28;20300;-75
2023/06/28 15:24:30;;;;;;;4.50;1.97;;;26.00;69.40;;;;;;4992731;28;20190;-82
2023/06/28 15:26:58;;;;;;;1.40;1.17;;;26.00;69.10;;;;;;4991160;28;20190;-84
2023/06/28 15:29:25;;;;;;;1.57;1.20;;;26.00;68.50;;;;;;4992844;28;20317;-86
2023/06/28 15:31:51;;;;;;;1.80;1.77;;;26.00;68.70;;;;;;4991998;28;20474;-77
2023/06/28 15:34:16;;;;;;;1.00;0.90;;;26.00;69.10;;;;;;4992849;28;20512;-82
2023/06/28 15:36:42;;;;;;;1.57;1.47;;;26.00;69.50;;;;;;4992640;28;20173;-82
2023/06/28 15:39:08;;;;;;;1.20;1.10;;;26.10;70.50;;;;;;4992260;28;20461;-87
2023/06/28 15:41:34;;;;;;;0.97;0.93;;;26.00;69.10;;;;;;4991375;28;20213;-80
2023/06/28 15:43:59;;;;;;;1.30;1.20;;;26.10;69.40;;;;;;4990904;28;20432;-86
2023/06/28 15:46:33;;;;;;;1.30;1.20;;;26.20;69.60;;;;;;4992182;28;20232;-85
2023/06/28 15:48:59;;;;;;;1.00;0.90;;;26.30;69.80;;;;;;4991803;28;20296;-81
2023/06/28 15:51:27;;;;;;;9.60;1.00;;;26.30;69.20;;;;;;4991893;28;20519;-80
2023/06/28 15:53:53;;;;;;;4.43;2.23;;;26.30;69.80;;;;;;4970887;28;20434;-80
2023/06/28 15:56:21;;;;;;;1.47;1.37;;;26.40;70.10;;;;;;4989615;28;20928;-73
2023/06/28 15:58:47;;;;;;;2.30;1.20;;;26.50;68.80;;;;;;4990644;28;20490;-78
2023/06/28 16:01:14;;;;;;;1.00;0.90;;;26.40;69.10;;;;;;4991107;28;20520;-83
2023/06/28 16:03:40;;;;;;;1.00;0.90;;;26.40;70.20;;;;;;4992288;28;20186;-75
2023/06/28 16:06:05;;;;;;;1.00;0.90;;;26.50;70.00;;;;;;4999759;28;20426;-78
2023/06/28 16:08:31;;;;;;;0.97;0.87;;;26.40;68.80;;;;;;4990492;28;20213;-75
2023/06/28 16:10:56;;;;;;;1.60;1.60;;;26.30;69.10;;;;;;4990686;28;20257;-76
2023/06/28 16:13:24;;;;;;;1.00;0.87;;;26.30;69.50;;;;;;4972815;28;20244;-83
2023/06/28 16:18:20;;;;;;;1.70;0.97;;;26.30;70.90;;;;;;4950937;29;20832;-81
2023/06/28 16:20:46;;;;;;;1.00;0.90;;;26.30;69.60;;;;;;4946719;28;20475;-81
2023/06/28 16:23:11;;;;;;;1.53;1.43;;;26.40;70.80;;;;;;4931904;28;20238;-80
2023/06/28 16:25:36;;;;;;;1.17;1.10;;;26.30;70.10;;;;;;4936788;29;20626;-77
2023/06/28 16:28:12;;;;;;;0.87;0.83;;;26.40;70.90;;;;;;4945415;28;20199;-74
2023/06/28 16:30:38;;;;;;;1.30;1.13;;;26.50;69.70;;;;;;4919439;29;20233;-80
2023/06/28 16:33:09;;;;;;;1.27;1.17;;;26.40;69.30;;;;;;4944287;29;20627;-81
2023/06/28 16:35:35;;;;;;;2.30;1.60;;;26.40;70.10;;;;;;4940005;29;20226;-82
2023/06/28 16:38:01;;;;;;;1.67;1.17;;;26.50;69.70;;;;;;4947822;29;20943;-78
2023/06/28 16:40:27;;;;;;;4.63;2.10;;;26.40;69.90;;;;;;4933265;29;20763;-83
2023/06/28 16:42:53;;;;;;;1.20;1.10;;;26.30;70.20;;;;;;4932205;29;20188;-80
2023/06/28 16:45:18;;;;;;;1.20;1.20;;;26.20;69.80;;;;;;4931756;29;20499;-84
2023/06/28 16:47:44;;;;;;;4.93;1.90;;;26.10;69.90;;;;;;4931410;29;20191;-76